createdAt,value
2023-09-09T00:01:33.449Z,101657.50
2023-09-09T00:04:00.713Z,101661.41
2023-09-09T00:06:27.343Z,101658.88
2023-09-09T00:08:53.940Z,101653.84
2023-09-09T00:11:20.449Z,101660.41
2023-09-09T00:13:47.087Z,101657.44
2023-09-09T00:16:14.226Z,101653.22
2023-09-09T00:18:40.893Z,101652.53
2023-09-09T00:21:07.353Z,101659.75
2023-09-09T00:23:33.867Z,101657.38
2023-09-09T00:26:00.443Z,101653.31
2023-09-09T00:28:26.971Z,101649.53
2023-09-09T00:30:53.454Z,101661.22
2023-09-09T00:33:20.011Z,101648.13
2023-09-09T00:35:46.532Z,101656.34
2023-09-09T00:38:15.064Z,101656.88
2023-09-09T00:40:45.893Z,101648.34
2023-09-09T00:43:12.446Z,101650.28
2023-09-09T00:45:40.373Z,101647.88
2023-09-09T00:48:07.167Z,101647.19
2023-09-09T00:50:33.849Z,101647.44
2023-09-09T00:53:00.585Z,101648.69
2023-09-09T00:55:28.325Z,101645.47
2023-09-09T00:57:54.903Z,101642.22
2023-09-09T01:00:21.382Z,101647.66
2023-09-09T01:02:48.038Z,101643.44
2023-09-09T01:05:16.287Z,101647.19
2023-09-09T01:07:47.000Z,101644.94
2023-09-09T01:10:15.081Z,101641.59
2023-09-09T01:12:43.351Z,101647.16
2023-09-09T01:15:11.149Z,101642.13
2023-09-09T01:17:38.971Z,101648.63
2023-09-09T01:20:13.372Z,101641.75
2023-09-09T01:22:41.465Z,101648.97
2023-09-09T01:25:08.608Z,101646.59
2023-09-09T01:27:35.170Z,101642.28
2023-09-09T01:30:01.902Z,101645.03
2023-09-09T01:32:28.496Z,101638.06
2023-09-09T01:34:55.004Z,101636.50
2023-09-09T01:37:21.569Z,101638.56
2023-09-09T01:39:48.979Z,101641.47
2023-09-09T01:42:18.577Z,101639.09
2023-09-09T01:44:46.884Z,101642.97
2023-09-09T01:47:14.920Z,101641.69
2023-09-09T01:49:42.933Z,101645.53
2023-09-09T01:52:09.846Z,101638.69
2023-09-09T01:54:36.897Z,101639.78
2023-09-09T01:57:03.662Z,101647.00
2023-09-09T01:59:30.237Z,101647.50
2023-09-09T02:01:57.216Z,101639.94
2023-09-09T02:04:23.803Z,101655.22
2023-09-09T02:06:50.284Z,101646.81
2023-09-09T02:09:16.931Z,101640.94
2023-09-09T02:11:43.439Z,101645.38
2023-09-09T02:14:09.997Z,101639.50
2023-09-09T02:16:36.495Z,101646.03
2023-09-09T02:19:03.079Z,101639.31
2023-09-09T02:21:30.503Z,101643.13
2023-09-09T02:23:57.063Z,101644.25
2023-09-09T02:26:23.592Z,101640.03
2023-09-09T02:28:50.655Z,101633.28
2023-09-09T02:31:17.330Z,101636.19
2023-09-09T02:33:43.879Z,101631.25
2023-09-09T02:36:10.446Z,101632.34
2023-09-09T02:38:37.702Z,101636.19
2023-09-09T02:41:04.287Z,101642.69
2023-09-09T02:43:31.269Z,101642.81
2023-09-09T02:45:57.884Z,101639.44
2023-09-09T02:48:24.472Z,101635.22
2023-09-09T02:50:50.992Z,101637.16
2023-09-09T02:53:17.505Z,101634.78
2023-09-09T02:55:43.967Z,101635.00
2023-09-09T02:58:13.841Z,101635.25
2023-09-09T03:00:40.476Z,101636.31
2023-09-09T03:03:07.557Z,101641.25
2023-09-09T03:05:37.540Z,101644.25
2023-09-09T03:08:05.815Z,101644.63
2023-09-09T03:10:32.834Z,101632.84
2023-09-09T03:13:00.077Z,101641.72
2023-09-09T03:15:26.635Z,101646.31
2023-09-09T03:17:53.208Z,101636.91
2023-09-09T03:20:19.795Z,101639.78
2023-09-09T03:22:46.301Z,101641.00
2023-09-09T03:25:12.783Z,101634.28
2023-09-09T03:27:39.332Z,101640.75
2023-09-09T03:30:06.382Z,101640.97
2023-09-09T03:32:32.916Z,101639.38
2023-09-09T03:34:59.366Z,101635.16
2023-09-09T03:37:26.217Z,101642.47
2023-09-09T03:39:52.840Z,101636.59
2023-09-09T03:42:19.704Z,101635.88
2023-09-09T03:44:46.175Z,101629.88
2023-09-09T03:47:12.633Z,101628.31
2023-09-09T03:49:39.127Z,101633.94
2023-09-09T03:52:05.898Z,101631.63
2023-09-09T03:54:32.501Z,101642.53
2023-09-09T03:56:58.960Z,101641.09
2023-09-09T03:59:30.382Z,101633.41
2023-09-09T04:01:57.996Z,101649.38
2023-09-09T04:04:25.142Z,101648.72
2023-09-09T04:06:51.790Z,101646.22
2023-09-09T04:09:23.961Z,101650.88
2023-09-09T04:11:50.632Z,101652.06
2023-09-09T04:14:18.528Z,101653.00
2023-09-09T04:16:45.162Z,101655.84
2023-09-09T04:19:11.780Z,101646.41
2023-09-09T04:21:38.235Z,101659.81
2023-09-09T04:24:05.037Z,101658.22
2023-09-09T04:26:31.510Z,101648.75
2023-09-09T04:28:58.043Z,101661.22
2023-09-09T04:31:24.525Z,101662.28
2023-09-09T04:33:51.071Z,101660.81
2023-09-09T04:36:17.578Z,101660.31
2023-09-09T04:38:44.284Z,101658.63
2023-09-09T04:41:10.855Z,101664.97
2023-09-09T04:43:37.551Z,101662.53
2023-09-09T04:46:04.319Z,101670.66
2023-09-09T04:48:31.021Z,101666.47
2023-09-09T04:50:57.796Z,101666.53
2023-09-09T04:53:24.271Z,101672.88
2023-09-09T04:55:50.777Z,101674.03
2023-09-09T04:58:17.380Z,101677.72
2023-09-09T05:00:43.858Z,101680.59
2023-09-09T05:03:10.487Z,101670.16
2023-09-09T05:05:37.086Z,101675.53
2023-09-09T05:08:03.800Z,101676.50
2023-09-09T05:10:31.268Z,101670.50
2023-09-09T05:12:57.920Z,101674.91
2023-09-09T05:15:24.455Z,101670.72
2023-09-09T05:17:51.045Z,101669.84
2023-09-09T05:20:17.843Z,101676.91
2023-09-09T05:22:44.399Z,101673.78
2023-09-09T05:25:10.915Z,101675.47
2023-09-09T05:27:37.435Z,101678.84
2023-09-09T05:30:04.991Z,101681.56
2023-09-09T05:32:31.572Z,101679.75
2023-09-09T05:34:58.100Z,101678.09
2023-09-09T05:37:27.704Z,101685.91
2023-09-09T05:39:54.248Z,101678.94
2023-09-09T05:42:20.689Z,101684.94
2023-09-09T05:44:47.160Z,101683.16
2023-09-09T05:47:13.708Z,101688.28
2023-09-09T05:49:40.726Z,101694.31
2023-09-09T05:52:08.227Z,101697.78
2023-09-09T05:54:34.895Z,101695.97
2023-09-09T05:57:01.695Z,101703.88
2023-09-09T05:59:28.297Z,101700.31
2023-09-09T06:01:55.108Z,101707.16
2023-09-09T06:04:22.387Z,101708.13
2023-09-09T06:06:49.508Z,101705.25
2023-09-09T06:09:16.379Z,101711.38
2023-09-09T06:11:43.009Z,101713.16
2023-09-09T06:14:09.653Z,101715.59
2023-09-09T06:16:36.780Z,101714.41
2023-09-09T06:19:03.363Z,101716.34
2023-09-09T06:21:30.040Z,101719.28
2023-09-09T06:23:56.481Z,101719.91
2023-09-09T06:26:22.975Z,101726.34
2023-09-09T06:28:49.683Z,101723.84
2023-09-09T06:31:16.252Z,101724.66
2023-09-09T06:33:44.954Z,101732.44
2023-09-09T06:36:12.222Z,101736.56
2023-09-09T06:38:38.867Z,101742.06
2023-09-09T06:41:05.773Z,101738.28
2023-09-09T06:43:32.241Z,101737.94
2023-09-09T06:46:00.983Z,101736.31
2023-09-09T06:48:27.805Z,101733.97
2023-09-09T06:50:54.380Z,101737.13
2023-09-09T06:53:20.926Z,101741.84
2023-09-09T06:55:48.564Z,101737.78
2023-09-09T06:58:15.387Z,101735.28
2023-09-09T07:00:44.139Z,101745.00
2023-09-09T07:03:10.883Z,101745.50
2023-09-09T07:05:37.462Z,101754.41
2023-09-09T07:08:04.292Z,101754.59
2023-09-09T07:10:31.772Z,101753.41
2023-09-09T07:12:58.591Z,101748.63
2023-09-09T07:15:25.278Z,101755.03
2023-09-09T07:17:51.901Z,101754.69
2023-09-09T07:20:18.500Z,101752.47
2023-09-09T07:22:45.099Z,101768.56
2023-09-09T07:25:11.745Z,101760.22
2023-09-09T07:27:38.341Z,101753.75
2023-09-09T07:30:06.139Z,101761.59
2023-09-09T07:32:33.360Z,101755.72
2023-09-09T07:35:04.198Z,101757.88
2023-09-09T07:37:30.845Z,101759.91
2023-09-09T07:40:01.824Z,101759.22
2023-09-09T07:42:28.583Z,101756.13
2023-09-09T07:44:55.052Z,101752.75
2023-09-09T07:47:22.270Z,101764.38
2023-09-09T07:49:48.969Z,101756.31
2023-09-09T07:52:15.940Z,101760.75
2023-09-09T07:54:42.537Z,101756.41
2023-09-09T07:57:09.074Z,101768.66
2023-09-09T07:59:35.568Z,101768.59
2023-09-09T08:02:03.888Z,101763.78
2023-09-09T08:04:30.556Z,101770.72
2023-09-09T08:06:57.626Z,101763.25
2023-09-09T08:09:24.281Z,101771.28
2023-09-09T08:11:50.798Z,101775.09
2023-09-09T08:14:19.319Z,101766.50
2023-09-09T08:16:46.314Z,101770.38
2023-09-09T08:19:13.099Z,101777.81
2023-09-09T08:21:39.728Z,101773.56
2023-09-09T08:24:06.376Z,101779.19
2023-09-09T08:26:33.024Z,101786.25
2023-09-09T08:29:00.070Z,101783.66
2023-09-09T08:31:27.221Z,101789.84
2023-09-09T08:33:53.950Z,101774.09
2023-09-09T08:36:20.458Z,101778.88
2023-09-09T08:38:47.032Z,101777.22
2023-09-09T08:41:39.536Z,101791.94
2023-09-09T08:44:21.130Z,101786.78
2023-09-09T08:46:48.185Z,101797.69
2023-09-09T08:49:18.300Z,101796.75
2023-09-09T08:51:59.651Z,101793.59
2023-09-09T08:54:27.408Z,101795.28
2023-09-09T08:56:54.661Z,101797.38
2023-09-09T08:59:22.755Z,101803.41
2023-09-09T09:01:51.881Z,101797.53
2023-09-09T09:04:19.463Z,101798.09
2023-09-09T09:06:49.919Z,101796.41
2023-09-09T09:09:17.920Z,101798.78
2023-09-09T09:11:45.207Z,101806.94
2023-09-09T09:14:11.812Z,101806.22
2023-09-09T09:16:42.562Z,101803.13
2023-09-09T09:19:19.102Z,101805.66
2023-09-09T09:21:45.745Z,101801.97
2023-09-09T09:24:12.306Z,101798.03
2023-09-09T09:26:38.798Z,101800.69
2023-09-09T09:29:08.420Z,101795.63
2023-09-09T09:31:35.019Z,101799.09
2023-09-09T09:34:01.545Z,101790.25
2023-09-09T09:36:28.590Z,101789.66
2023-09-09T09:38:57.409Z,101792.56
2023-09-09T09:41:25.053Z,101793.81
2023-09-09T09:43:52.225Z,101797.00
2023-09-09T09:46:22.935Z,101797.72
2023-09-09T09:48:50.395Z,101801.28
2023-09-09T09:51:17.411Z,101800.88
2023-09-09T09:53:50.027Z,101801.94
2023-09-09T09:56:17.421Z,101800.19
2023-09-09T09:58:45.576Z,101808.97
2023-09-09T10:01:12.514Z,101810.06
2023-09-09T10:03:44.956Z,101804.81
2023-09-09T10:06:13.454Z,101799.38
2023-09-09T10:08:47.553Z,101803.22
2023-09-09T10:11:18.248Z,101803.44
2023-09-09T10:13:54.339Z,101804.22
2023-09-09T10:16:21.765Z,101810.28
2023-09-09T10:18:50.973Z,101804.22
2023-09-09T10:21:31.764Z,101806.25
2023-09-09T10:24:07.292Z,101803.78
2023-09-09T10:26:36.040Z,101803.19
2023-09-09T10:29:03.293Z,101805.09
2023-09-09T10:31:30.690Z,101796.31
2023-09-09T10:34:00.268Z,101802.41
2023-09-09T10:36:28.066Z,101799.63
2023-09-09T10:38:59.396Z,101803.47
2023-09-09T10:41:25.959Z,101804.31
2023-09-09T10:43:52.489Z,101801.00
2023-09-09T10:46:33.833Z,101794.56
2023-09-09T10:49:04.665Z,101795.75
2023-09-09T10:51:45.641Z,101794.09
2023-09-09T10:54:13.873Z,101785.47
2023-09-09T10:57:01.160Z,101787.50
2023-09-09T10:59:30.409Z,101787.19
2023-09-09T11:02:16.723Z,101788.22
2023-09-09T11:04:43.693Z,101781.06
2023-09-09T11:07:16.724Z,101788.91
2023-09-09T11:09:54.095Z,101786.94
2023-09-09T11:12:27.263Z,101782.28
2023-09-09T11:15:08.230Z,101789.63
2023-09-09T11:17:42.249Z,101788.13
2023-09-09T11:20:12.495Z,101784.28
2023-09-09T11:22:43.164Z,101785.31
2023-09-09T11:25:10.132Z,101781.97
2023-09-09T11:27:38.415Z,101781.78
2023-09-09T11:30:05.864Z,101788.03
2023-09-09T11:32:33.638Z,101779.69
2023-09-09T11:35:00.492Z,101779.00
2023-09-09T11:37:30.122Z,101784.34
2023-09-09T11:39:57.396Z,101784.53
2023-09-09T11:42:24.080Z,101779.50
2023-09-09T11:44:50.902Z,101783.69
2023-09-09T11:47:18.752Z,101783.16
2023-09-09T11:49:52.246Z,101785.00
2023-09-09T11:52:24.413Z,101779.50
2023-09-09T11:54:51.317Z,101786.69
2023-09-09T11:57:17.976Z,101787.69
2023-09-09T11:59:54.452Z,101782.66
2023-09-09T12:02:27.072Z,101779.31
2023-09-09T12:04:59.252Z,101779.97
2023-09-09T12:07:33.821Z,101772.44
2023-09-09T12:10:01.491Z,101780.81
2023-09-09T12:12:29.318Z,101776.25
2023-09-09T12:14:59.063Z,101776.75
2023-09-09T12:17:25.903Z,101778.59
2023-09-09T12:19:56.910Z,101780.44
2023-09-09T12:22:48.170Z,101765.34
2023-09-09T12:25:34.546Z,101773.38
2023-09-09T12:28:01.220Z,101767.16
2023-09-09T12:30:35.337Z,101779.72
2023-09-09T12:33:15.637Z,101775.66
2023-09-09T12:35:49.288Z,101778.28
2023-09-09T12:38:16.449Z,101765.25
2023-09-09T12:40:53.531Z,101765.94
2023-09-09T12:43:26.139Z,101767.75
2023-09-09T12:45:57.470Z,101762.06
2023-09-09T12:48:24.381Z,101768.63
2023-09-09T12:50:50.868Z,101768.78
2023-09-09T12:53:18.561Z,101762.41
2023-09-09T12:55:45.149Z,101763.56
2023-09-09T12:58:11.950Z,101764.56
2023-09-09T13:00:38.546Z,101754.16
2023-09-09T13:03:05.493Z,101752.97
2023-09-09T13:05:33.153Z,101755.59
2023-09-09T13:07:59.627Z,101748.69
2023-09-09T13:10:26.334Z,101753.41
2023-09-09T13:12:54.416Z,101757.56
2023-09-09T13:15:22.149Z,101756.88
2023-09-09T13:17:48.609Z,101760.84
2023-09-09T13:20:15.083Z,101759.97
2023-09-09T13:22:41.541Z,101762.13
2023-09-09T13:25:08.631Z,101761.75
2023-09-09T13:27:38.707Z,101764.44
2023-09-09T13:30:06.420Z,101759.75
2023-09-09T13:32:33.067Z,101763.25
2023-09-09T13:35:00.098Z,101755.53
2023-09-09T13:37:27.910Z,101756.19
2023-09-09T13:39:54.776Z,101751.03
2023-09-09T13:42:21.892Z,101746.81
2023-09-09T13:45:10.164Z,101747.50
2023-09-09T13:47:35.395Z,101747.81
2023-09-09T13:50:04.324Z,101748.28
2023-09-09T13:52:31.245Z,101741.88
2023-09-09T13:54:57.736Z,101746.69
2023-09-09T13:57:25.232Z,101746.34
2023-09-09T13:59:52.274Z,101745.97
2023-09-09T14:02:19.060Z,101745.81
2023-09-09T14:04:45.684Z,101746.28
2023-09-09T14:07:12.263Z,101745.47
2023-09-09T14:09:38.895Z,101744.44
2023-09-09T14:12:05.872Z,101735.56
2023-09-09T14:14:35.162Z,101741.94
2023-09-09T14:17:01.790Z,101749.59
2023-09-09T14:19:29.196Z,101743.41
2023-09-09T14:21:55.707Z,101743.41
2023-09-09T14:24:22.286Z,101738.72
2023-09-09T14:26:48.828Z,101730.47
2023-09-09T14:29:15.282Z,101732.78
2023-09-09T14:31:41.752Z,101734.66
2023-09-09T14:34:09.218Z,101734.53
2023-09-09T14:36:35.800Z,101726.69
2023-09-09T14:39:02.512Z,101730.31
2023-09-09T14:41:29.104Z,101725.88
2023-09-09T14:43:55.663Z,101727.38
2023-09-09T14:46:25.258Z,101730.22
2023-09-09T14:49:02.808Z,101735.13
2023-09-09T14:51:34.082Z,101738.81
2023-09-09T14:54:05.838Z,101735.31
2023-09-09T14:56:33.392Z,101734.13
2023-09-09T14:58:59.944Z,101736.13
2023-09-09T15:01:26.878Z,101736.59
2023-09-09T15:03:53.421Z,101722.81
2023-09-09T15:06:19.960Z,101729.84
2023-09-09T15:08:46.605Z,101719.84
2023-09-09T15:11:13.169Z,101730.88
2023-09-09T15:13:39.698Z,101730.88
2023-09-09T15:16:07.739Z,101728.81
2023-09-09T15:18:35.884Z,101728.81
2023-09-09T15:21:03.980Z,101729.84
2023-09-09T15:23:31.275Z,101728.81
2023-09-09T15:25:57.893Z,101730.50
2023-09-09T15:28:24.413Z,101734.50
2023-09-09T15:30:56.373Z,101719.06
2023-09-09T15:33:23.683Z,101733.66
2023-09-09T15:35:59.829Z,101721.81
2023-09-09T15:38:26.510Z,101730.50
2023-09-09T15:40:53.521Z,101720.78
2023-09-09T15:43:20.366Z,101719.06
2023-09-09T15:45:49.788Z,101720.50
2023-09-09T15:48:17.057Z,101714.63
2023-09-09T15:50:43.730Z,101723.66
2023-09-09T15:53:10.337Z,101719.16
2023-09-09T15:55:37.004Z,101722.84
2023-09-09T15:58:05.058Z,101723.19
2023-09-09T16:00:32.510Z,101722.38
2023-09-09T16:02:59.279Z,101713.03
2023-09-09T16:05:27.089Z,101722.09
2023-09-09T16:07:53.694Z,101718.94
2023-09-09T16:10:20.285Z,101724.22
2023-09-09T16:12:46.924Z,101718.38
2023-09-09T16:15:13.443Z,101723.28
2023-09-09T16:17:41.225Z,101714.09
2023-09-09T16:20:08.974Z,101715.50
2023-09-09T16:22:35.628Z,101715.03
2023-09-09T16:25:02.598Z,101715.19
2023-09-09T16:27:29.180Z,101720.75
2023-09-09T16:29:55.684Z,101711.84
2023-09-09T16:32:22.180Z,101722.56
2023-09-09T16:34:48.888Z,101716.72
2023-09-09T16:37:15.713Z,101716.25
2023-09-09T16:39:42.172Z,101716.63
2023-09-09T16:42:08.708Z,101712.47
2023-09-09T16:44:35.268Z,101717.19
2023-09-09T16:47:01.947Z,101721.69
2023-09-09T16:49:28.593Z,101719.16
2023-09-09T16:51:55.043Z,101715.00
2023-09-09T16:54:21.639Z,101719.72
2023-09-09T16:56:50.303Z,101725.06
2023-09-09T16:59:16.810Z,101738.66
2023-09-09T17:01:43.878Z,101724.94
2023-09-09T17:04:10.592Z,101720.31
2023-09-09T17:06:37.106Z,101729.91
2023-09-09T17:09:04.858Z,101729.59
2023-09-09T17:11:31.350Z,101727.63
2023-09-09T17:13:57.829Z,101729.19
2023-09-09T17:16:24.427Z,101728.19
2023-09-09T17:18:51.032Z,101734.44
2023-09-09T17:21:17.686Z,101725.25
2023-09-09T17:23:44.337Z,101728.78
2023-09-09T17:26:10.830Z,101728.66
2023-09-09T17:28:37.374Z,101729.19
2023-09-09T17:31:04.519Z,101735.22
2023-09-09T17:33:31.049Z,101742.09
2023-09-09T17:35:57.907Z,101735.78
2023-09-09T17:38:24.406Z,101737.31
2023-09-09T17:40:51.036Z,101747.88
2023-09-09T17:43:17.543Z,101746.88
2023-09-09T17:45:44.094Z,101739.84
2023-09-09T17:48:10.675Z,101752.41
2023-09-09T17:50:37.358Z,101748.06
2023-09-09T17:53:04.059Z,101748.25
2023-09-09T17:55:30.860Z,101753.41
2023-09-09T17:57:57.358Z,101749.59
2023-09-09T18:00:23.896Z,101748.59
2023-09-09T18:02:50.481Z,101746.94
2023-09-09T18:05:17.462Z,101746.88
2023-09-09T18:07:45.183Z,101755.59
2023-09-09T18:10:11.755Z,101760.25
2023-09-09T18:12:39.466Z,101750.53
2023-09-09T18:15:06.725Z,101754.88
2023-09-09T18:17:33.499Z,101755.66
2023-09-09T18:20:00.158Z,101755.66
2023-09-09T18:22:27.223Z,101756.31
2023-09-09T18:24:53.835Z,101748.09
2023-09-09T18:27:20.301Z,101749.72
2023-09-09T18:29:46.774Z,101751.38
2023-09-09T18:32:13.252Z,101756.19
2023-09-09T18:34:39.891Z,101748.13
2023-09-09T18:37:06.651Z,101763.94
2023-09-09T18:39:34.085Z,101764.75
2023-09-09T18:42:00.708Z,101768.88
2023-09-09T18:44:27.270Z,101768.03
2023-09-09T18:46:55.647Z,101770.47
2023-09-09T18:49:22.306Z,101772.13
2023-09-09T18:51:48.961Z,101775.22
2023-09-09T18:54:15.401Z,101783.84
2023-09-09T18:56:41.883Z,101780.78
2023-09-09T18:59:08.667Z,101778.44
2023-09-09T19:01:35.884Z,101778.91
2023-09-09T19:04:02.580Z,101788.88
2023-09-09T19:06:29.194Z,101785.88
2023-09-09T19:08:55.646Z,101792.63
2023-09-09T19:11:22.114Z,101793.25
2023-09-09T19:13:48.639Z,101803.03
2023-09-09T19:16:15.282Z,101788.47
2023-09-09T19:18:41.814Z,101795.75
2023-09-09T19:21:08.347Z,101796.06
2023-09-09T19:23:34.814Z,101799.19
2023-09-09T19:26:01.351Z,101789.84
2023-09-09T19:28:28.559Z,101796.31
2023-09-09T19:30:55.093Z,101794.78
2023-09-09T19:33:21.744Z,101802.19
2023-09-09T19:35:48.473Z,101799.28
2023-09-09T19:38:15.048Z,101804.91
2023-09-09T19:40:41.573Z,101798.53
2023-09-09T19:43:08.818Z,101805.16
2023-09-09T19:45:35.579Z,101810.75
2023-09-09T19:48:02.077Z,101813.72
2023-09-09T19:50:29.142Z,101809.69
2023-09-09T19:52:56.235Z,101808.31
2023-09-09T19:55:22.880Z,101809.56
2023-09-09T19:57:49.423Z,101813.53
2023-09-09T20:00:16.292Z,101813.16
2023-09-09T20:02:42.991Z,101821.41
2023-09-09T20:05:10.385Z,101816.38
2023-09-09T20:07:36.907Z,101813.31
2023-09-09T20:10:11.353Z,101822.59
2023-09-09T20:12:38.884Z,101821.03
2023-09-09T20:15:06.003Z,101823.13
2023-09-09T20:17:32.565Z,101830.84
2023-09-09T20:19:59.398Z,101832.28
2023-09-09T20:22:29.085Z,101838.72
2023-09-09T20:24:56.053Z,101838.19
2023-09-09T20:27:22.534Z,101830.31
2023-09-09T20:29:49.017Z,101823.50
2023-09-09T20:32:15.536Z,101831.59
2023-09-09T20:34:42.789Z,101829.09
2023-09-09T20:37:09.386Z,101833.16
2023-09-09T20:39:35.969Z,101829.13
2023-09-09T20:42:02.933Z,101834.72
2023-09-09T20:44:30.794Z,101835.84
2023-09-09T20:46:57.393Z,101836.97
2023-09-09T20:49:23.947Z,101821.28
2023-09-09T20:51:50.525Z,101820.75
2023-09-09T20:54:17.064Z,101831.81
2023-09-09T20:56:43.594Z,101822.56
2023-09-09T20:59:10.221Z,101824.56
2023-09-09T21:01:36.788Z,101823.28
2023-09-09T21:04:04.224Z,101825.22
2023-09-09T21:06:31.192Z,101829.16
2023-09-09T21:08:57.797Z,101832.06
2023-09-09T21:11:24.364Z,101832.34
2023-09-09T21:13:50.957Z,101830.94
2023-09-09T21:16:17.536Z,101828.56
2023-09-09T21:18:47.294Z,101828.84
2023-09-09T21:21:14.532Z,101822.97
2023-09-09T21:23:42.006Z,101828.56
2023-09-09T21:26:08.765Z,101827.03
2023-09-09T21:28:35.465Z,101827.31
2023-09-09T21:31:02.245Z,101830.25
2023-09-09T21:33:28.926Z,101834.16
2023-09-09T21:35:55.993Z,101836.13
2023-09-09T21:38:22.434Z,101833.56
2023-09-09T21:40:48.959Z,101826.75
2023-09-09T21:43:17.106Z,101826.88
2023-09-09T21:45:43.699Z,101831.50
2023-09-09T21:48:11.521Z,101826.47
2023-09-09T21:50:38.189Z,101823.25
2023-09-09T21:53:04.953Z,101818.19
2023-09-09T21:55:34.941Z,101819.47
2023-09-09T21:58:01.434Z,101822.13
2023-09-09T22:00:28.005Z,101816.22
2023-09-09T22:02:54.794Z,101813.00
2023-09-09T22:05:21.398Z,101823.03
2023-09-09T22:07:47.960Z,101816.22
2023-09-09T22:10:17.418Z,101817.44
2023-09-09T22:12:43.891Z,101818.53
2023-09-09T22:15:11.503Z,101818.81
2023-09-09T22:17:39.024Z,101807.75
2023-09-09T22:20:12.832Z,101817.94
2023-09-09T22:22:40.815Z,101817.50
2023-09-09T22:25:12.223Z,101816.91
2023-09-09T22:27:39.121Z,101816.09
2023-09-09T22:30:06.776Z,101811.03
2023-09-09T22:32:33.620Z,101818.44
2023-09-09T22:35:06.795Z,101815.22
2023-09-09T22:37:35.426Z,101810.16
2023-09-09T22:40:02.444Z,101819.38
2023-09-09T22:42:29.006Z,101818.78
2023-09-09T22:44:55.538Z,101820.00
2023-09-09T22:47:23.192Z,101821.97
2023-09-09T22:49:53.435Z,101820.41
2023-09-09T22:52:20.474Z,101824.06
2023-09-09T22:54:47.219Z,101818.03
2023-09-09T22:57:14.660Z,101824.44
2023-09-09T22:59:41.129Z,101823.75
2023-09-09T23:02:07.742Z,101821.34
2023-09-09T23:04:34.411Z,101818.94
2023-09-09T23:07:01.062Z,101827.03
2023-09-09T23:09:27.526Z,101815.84
2023-09-09T23:11:53.985Z,101824.91
2023-09-09T23:14:23.665Z,101820.81
2023-09-09T23:16:50.860Z,101825.66
2023-09-09T23:19:17.429Z,101817.72
2023-09-09T23:21:43.875Z,101829.41
2023-09-09T23:24:10.457Z,101819.91
2023-09-09T23:26:37.805Z,101823.66
2023-09-09T23:29:05.630Z,101815.97
2023-09-09T23:31:36.074Z,101813.44
2023-09-09T23:34:03.296Z,101805.63
2023-09-09T23:36:29.959Z,101809.50
2023-09-09T23:38:56.644Z,101819.38
2023-09-09T23:41:23.181Z,101817.56
2023-09-09T23:43:49.992Z,101824.84
2023-09-09T23:46:16.831Z,101815.44
2023-09-09T23:48:43.381Z,101813.91
2023-09-09T23:51:10.112Z,101816.56
2023-09-09T23:53:36.644Z,101816.81
2023-09-09T23:56:03.389Z,101816.91
2023-09-09T23:58:29.926Z,101829.19
